sensor_id;sensor_type;location;lat;lon;timestamp;P1;durP1;ratioP1;P2;durP2;ratioP2
3653;SDS011;70277;54.302;10.064;2023-06-10T00:00:06;8.43;;;2.65;;
3653;SDS011;70277;54.302;10.064;2023-06-10T00:02:33;11.55;;;2.92;;
3653;SDS011;70277;54.302;10.064;2023-06-10T00:05:00;9.43;;;3.20;;
3653;SDS011;70277;54.302;10.064;2023-06-10T00:07:27;7.97;;;2.40;;
3653;SDS011;70277;54.302;10.064;2023-06-10T00:09:53;11.65;;;2.42;;
3653;SDS011;70277;54.302;10.064;2023-06-10T00:12:21;8.27;;;2.33;;
3653;SDS011;70277;54.302;10.064;2023-06-10T00:14:47;8.82;;;2.50;;
3653;SDS011;70277;54.302;10.064;2023-06-10T00:17:16;7.13;;;2.25;;
3653;SDS011;70277;54.302;10.064;2023-06-10T00:19:43;6.50;;;2.35;;
3653;SDS011;70277;54.302;10.064;2023-06-10T00:22:09;4.85;;;2.40;;
3653;SDS011;70277;54.302;10.064;2023-06-10T00:24:37;8.52;;;2.25;;
3653;SDS011;70277;54.302;10.064;2023-06-10T00:27:04;9.38;;;2.35;;
3653;SDS011;70277;54.302;10.064;2023-06-10T00:29:31;4.20;;;2.03;;
3653;SDS011;70277;54.302;10.064;2023-06-10T00:31:58;6.10;;;2.30;;
3653;SDS011;70277;54.302;10.064;2023-06-10T00:34:24;8.73;;;3.00;;
3653;SDS011;70277;54.302;10.064;2023-06-10T00:36:51;9.30;;;2.47;;
3653;SDS011;70277;54.302;10.064;2023-06-10T00:39:17;7.53;;;2.70;;
3653;SDS011;70277;54.302;10.064;2023-06-10T00:41:44;11.23;;;2.15;;
3653;SDS011;70277;54.302;10.064;2023-06-10T00:44:10;10.20;;;2.38;;
3653;SDS011;70277;54.302;10.064;2023-06-10T00:46:37;9.80;;;3.17;;
3653;SDS011;70277;54.302;10.064;2023-06-10T00:49:03;9.98;;;2.38;;
3653;SDS011;70277;54.302;10.064;2023-06-10T00:51:30;9.02;;;2.40;;
3653;SDS011;70277;54.302;10.064;2023-06-10T00:53:57;16.67;;;2.63;;
3653;SDS011;70277;54.302;10.064;2023-06-10T00:56:23;7.47;;;2.40;;
3653;SDS011;70277;54.302;10.064;2023-06-10T00:58:51;6.72;;;2.20;;
3653;SDS011;70277;54.302;10.064;2023-06-10T01:01:18;10.23;;;2.55;;
3653;SDS011;70277;54.302;10.064;2023-06-10T01:03:46;13.13;;;2.28;;
3653;SDS011;70277;54.302;10.064;2023-06-10T01:09:10;5.45;;;2.05;;
3653;SDS011;70277;54.302;10.064;2023-06-10T01:11:52;7.38;;;1.98;;
3653;SDS011;70277;54.302;10.064;2023-06-10T01:14:38;9.75;;;2.30;;
3653;SDS011;70277;54.302;10.064;2023-06-10T01:17:07;10.57;;;2.65;;
3653;SDS011;70277;54.302;10.064;2023-06-10T01:19:35;12.50;;;2.08;;
3653;SDS011;70277;54.302;10.064;2023-06-10T01:22:03;4.03;;;2.00;;
3653;SDS011;70277;54.302;10.064;2023-06-10T01:24:30;6.22;;;2.00;;
3653;SDS011;70277;54.302;10.064;2023-06-10T01:27:00;7.72;;;1.90;;
3653;SDS011;70277;54.302;10.064;2023-06-10T01:29:41;10.50;;;2.10;;
3653;SDS011;70277;54.302;10.064;2023-06-10T01:32:18;4.45;;;2.00;;
3653;SDS011;70277;54.302;10.064;2023-06-10T01:34:52;5.97;;;1.98;;
3653;SDS011;70277;54.302;10.064;2023-06-10T01:37:22;9.82;;;2.17;;
3653;SDS011;70277;54.302;10.064;2023-06-10T01:39:50;5.05;;;1.88;;
3653;SDS011;70277;54.302;10.064;2023-06-10T01:42:18;7.43;;;2.38;;
3653;SDS011;70277;54.302;10.064;2023-06-10T01:44:44;8.85;;;1.60;;
3653;SDS011;70277;54.302;10.064;2023-06-10T01:47:11;5.97;;;1.95;;
3653;SDS011;70277;54.302;10.064;2023-06-10T01:49:37;4.57;;;1.63;;
3653;SDS011;70277;54.302;10.064;2023-06-10T01:52:04;4.30;;;1.60;;
3653;SDS011;70277;54.302;10.064;2023-06-10T01:54:31;9.07;;;2.10;;
3653;SDS011;70277;54.302;10.064;2023-06-10T01:56:57;8.20;;;1.45;;
3653;SDS011;70277;54.302;10.064;2023-06-10T01:59:24;5.70;;;1.50;;
3653;SDS011;70277;54.302;10.064;2023-06-10T02:01:50;6.70;;;1.60;;
3653;SDS011;70277;54.302;10.064;2023-06-10T02:04:17;4.82;;;1.50;;
3653;SDS011;70277;54.302;10.064;2023-06-10T02:06:43;4.10;;;1.40;;
3653;SDS011;70277;54.302;10.064;2023-06-10T02:09:11;8.95;;;1.52;;
3653;SDS011;70277;54.302;10.064;2023-06-10T02:11:37;5.55;;;1.73;;
3653;SDS011;70277;54.302;10.064;2023-06-10T02:14:04;8.82;;;1.50;;
3653;SDS011;70277;54.302;10.064;2023-06-10T02:16:30;7.10;;;1.92;;
3653;SDS011;70277;54.302;10.064;2023-06-10T02:18:57;5.20;;;1.58;;
3653;SDS011;70277;54.302;10.064;2023-06-10T02:21:24;6.53;;;2.13;;
3653;SDS011;70277;54.302;10.064;2023-06-10T02:23:51;8.38;;;1.70;;
3653;SDS011;70277;54.302;10.064;2023-06-10T02:26:17;7.60;;;1.85;;
3653;SDS011;70277;54.302;10.064;2023-06-10T02:28:44;6.07;;;1.77;;
3653;SDS011;70277;54.302;10.064;2023-06-10T02:31:10;7.20;;;1.50;;
3653;SDS011;70277;54.302;10.064;2023-06-10T02:33:38;6.15;;;1.77;;
3653;SDS011;70277;54.302;10.064;2023-06-10T02:36:06;9.43;;;1.90;;
3653;SDS011;70277;54.302;10.064;2023-06-10T02:38:33;9.50;;;1.75;;
3653;SDS011;70277;54.302;10.064;2023-06-10T02:40:59;6.68;;;1.58;;
3653;SDS011;70277;54.302;10.064;2023-06-10T02:43:26;12.18;;;1.63;;
3653;SDS011;70277;54.302;10.064;2023-06-10T02:45:52;10.48;;;2.10;;
3653;SDS011;70277;54.302;10.064;2023-06-10T02:48:19;8.40;;;1.70;;
3653;SDS011;70277;54.302;10.064;2023-06-10T02:50:45;5.85;;;1.45;;
3653;SDS011;70277;54.302;10.064;2023-06-10T02:53:11;8.70;;;1.80;;
3653;SDS011;70277;54.302;10.064;2023-06-10T02:55:39;3.92;;;1.55;;
3653;SDS011;70277;54.302;10.064;2023-06-10T02:58:05;3.28;;;1.20;;
3653;SDS011;70277;54.302;10.064;2023-06-10T03:00:32;4.57;;;1.38;;
3653;SDS011;70277;54.302;10.064;2023-06-10T03:02:59;12.60;;;1.77;;
3653;SDS011;70277;54.302;10.064;2023-06-10T03:05:29;7.40;;;1.60;;
3653;SDS011;70277;54.302;10.064;2023-06-10T03:07:55;9.95;;;1.85;;
3653;SDS011;70277;54.302;10.064;2023-06-10T03:10:22;5.18;;;1.40;;
3653;SDS011;70277;54.302;10.064;2023-06-10T03:12:48;7.93;;;1.50;;
3653;SDS011;70277;54.302;10.064;2023-06-10T03:15:15;7.03;;;1.65;;
3653;SDS011;70277;54.302;10.064;2023-06-10T03:17:42;6.72;;;1.30;;
3653;SDS011;70277;54.302;10.064;2023-06-10T03:20:08;6.47;;;1.50;;
3653;SDS011;70277;54.302;10.064;2023-06-10T03:22:36;6.95;;;1.67;;
3653;SDS011;70277;54.302;10.064;2023-06-10T03:25:04;6.55;;;1.77;;
3653;SDS011;70277;54.302;10.064;2023-06-10T03:27:32;10.10;;;2.00;;
3653;SDS011;70277;54.302;10.064;2023-06-10T03:29:59;6.53;;;1.60;;
3653;SDS011;70277;54.302;10.064;2023-06-10T03:32:25;2.63;;;1.08;;
3653;SDS011;70277;54.302;10.064;2023-06-10T03:34:52;7.10;;;1.42;;
3653;SDS011;70277;54.302;10.064;2023-06-10T03:37:23;13.60;;;1.73;;
3653;SDS011;70277;54.302;10.064;2023-06-10T03:39:50;7.15;;;1.58;;
3653;SDS011;70277;54.302;10.064;2023-06-10T03:42:17;6.57;;;1.60;;
3653;SDS011;70277;54.302;10.064;2023-06-10T03:44:43;9.18;;;1.55;;
3653;SDS011;70277;54.302;10.064;2023-06-10T03:47:12;4.57;;;1.00;;
3653;SDS011;70277;54.302;10.064;2023-06-10T03:49:39;4.85;;;1.63;;
3653;SDS011;70277;54.302;10.064;2023-06-10T03:52:06;12.68;;;1.63;;
3653;SDS011;70277;54.302;10.064;2023-06-10T03:54:33;7.13;;;1.92;;
3653;SDS011;70277;54.302;10.064;2023-06-10T03:57:00;5.07;;;1.30;;
3653;SDS011;70277;54.302;10.064;2023-06-10T03:59:27;3.70;;;1.10;;
3653;SDS011;70277;54.302;10.064;2023-06-10T04:01:54;6.38;;;1.35;;
3653;SDS011;70277;54.302;10.064;2023-06-10T04:04:22;5.75;;;1.23;;
3653;SDS011;70277;54.302;10.064;2023-06-10T04:06:49;5.90;;;1.67;;
3653;SDS011;70277;54.302;10.064;2023-06-10T04:09:16;7.47;;;1.67;;
3653;SDS011;70277;54.302;10.064;2023-06-10T04:11:43;3.83;;;1.08;;
3653;SDS011;70277;54.302;10.064;2023-06-10T04:14:10;5.95;;;1.27;;
3653;SDS011;70277;54.302;10.064;2023-06-10T04:16:36;8.88;;;1.35;;
3653;SDS011;70277;54.302;10.064;2023-06-10T04:19:04;7.85;;;1.50;;
3653;SDS011;70277;54.302;10.064;2023-06-10T04:21:31;9.48;;;1.73;;
3653;SDS011;70277;54.302;10.064;2023-06-10T04:23:59;5.25;;;1.58;;
3653;SDS011;70277;54.302;10.064;2023-06-10T04:26:25;4.95;;;1.50;;
3653;SDS011;70277;54.302;10.064;2023-06-10T04:28:53;8.18;;;1.73;;
3653;SDS011;70277;54.302;10.064;2023-06-10T04:31:19;7.10;;;1.67;;
3653;SDS011;70277;54.302;10.064;2023-06-10T04:33:46;6.22;;;1.80;;
3653;SDS011;70277;54.302;10.064;2023-06-10T04:36:13;5.72;;;1.20;;
3653;SDS011;70277;54.302;10.064;2023-06-10T04:38:40;7.63;;;1.27;;
3653;SDS011;70277;54.302;10.064;2023-06-10T04:41:07;8.73;;;1.90;;
3653;SDS011;70277;54.302;10.064;2023-06-10T04:43:34;9.88;;;1.75;;
3653;SDS011;70277;54.302;10.064;2023-06-10T04:46:00;9.93;;;1.85;;
3653;SDS011;70277;54.302;10.064;2023-06-10T04:48:27;6.32;;;1.73;;
3653;SDS011;70277;54.302;10.064;2023-06-10T04:50:54;5.10;;;1.42;;
3653;SDS011;70277;54.302;10.064;2023-06-10T04:53:21;3.10;;;1.65;;
3653;SDS011;70277;54.302;10.064;2023-06-10T04:55:48;6.75;;;1.38;;
3653;SDS011;70277;54.302;10.064;2023-06-10T04:58:15;5.22;;;1.40;;
3653;SDS011;70277;54.302;10.064;2023-06-10T05:00:41;7.00;;;1.38;;
3653;SDS011;70277;54.302;10.064;2023-06-10T05:03:08;9.68;;;1.42;;
3653;SDS011;70277;54.302;10.064;2023-06-10T05:05:34;5.22;;;1.58;;
3653;SDS011;70277;54.302;10.064;2023-06-10T05:08:01;5.72;;;1.73;;
3653;SDS011;70277;54.302;10.064;2023-06-10T05:10:27;6.35;;;1.92;;
3653;SDS011;70277;54.302;10.064;2023-06-10T05:12:57;5.13;;;1.60;;
3653;SDS011;70277;54.302;10.064;2023-06-10T05:15:24;8.32;;;1.85;;
3653;SDS011;70277;54.302;10.064;2023-06-10T05:17:51;6.72;;;1.38;;
3653;SDS011;70277;54.302;10.064;2023-06-10T05:20:18;13.63;;;1.70;;
3653;SDS011;70277;54.302;10.064;2023-06-10T05:22:44;7.47;;;1.30;;
3653;SDS011;70277;54.302;10.064;2023-06-10T05:25:11;8.85;;;1.55;;
3653;SDS011;70277;54.302;10.064;2023-06-10T05:27:37;4.82;;;1.35;;
3653;SDS011;70277;54.302;10.064;2023-06-10T05:30:05;9.55;;;1.98;;
3653;SDS011;70277;54.302;10.064;2023-06-10T05:32:33;4.50;;;1.48;;
3653;SDS011;70277;54.302;10.064;2023-06-10T05:35:00;10.98;;;1.85;;
3653;SDS011;70277;54.302;10.064;2023-06-10T05:37:27;8.45;;;1.77;;
3653;SDS011;70277;54.302;10.064;2023-06-10T05:39:54;4.93;;;1.40;;
3653;SDS011;70277;54.302;10.064;2023-06-10T05:42:20;7.00;;;1.40;;
3653;SDS011;70277;54.302;10.064;2023-06-10T05:44:46;4.82;;;1.20;;
3653;SDS011;70277;54.302;10.064;2023-06-10T05:47:13;5.93;;;1.40;;
3653;SDS011;70277;54.302;10.064;2023-06-10T05:49:39;5.65;;;1.45;;
3653;SDS011;70277;54.302;10.064;2023-06-10T05:52:06;8.32;;;1.67;;
3653;SDS011;70277;54.302;10.064;2023-06-10T05:54:33;9.20;;;1.80;;
3653;SDS011;70277;54.302;10.064;2023-06-10T05:56:59;11.02;;;2.15;;
3653;SDS011;70277;54.302;10.064;2023-06-10T05:59:25;5.38;;;1.48;;
3653;SDS011;70277;54.302;10.064;2023-06-10T06:01:52;7.53;;;1.48;;
3653;SDS011;70277;54.302;10.064;2023-06-10T06:04:18;7.55;;;1.77;;
3653;SDS011;70277;54.302;10.064;2023-06-10T06:06:45;5.43;;;1.60;;
3653;SDS011;70277;54.302;10.064;2023-06-10T06:09:11;7.05;;;1.90;;
3653;SDS011;70277;54.302;10.064;2023-06-10T06:11:38;8.40;;;1.88;;
3653;SDS011;70277;54.302;10.064;2023-06-10T06:14:05;6.90;;;1.73;;
3653;SDS011;70277;54.302;10.064;2023-06-10T06:16:32;10.73;;;1.67;;
3653;SDS011;70277;54.302;10.064;2023-06-10T06:18:59;7.80;;;1.60;;
3653;SDS011;70277;54.302;10.064;2023-06-10T06:21:25;8.90;;;1.70;;
3653;SDS011;70277;54.302;10.064;2023-06-10T06:23:52;5.93;;;1.80;;
3653;SDS011;70277;54.302;10.064;2023-06-10T06:26:19;9.60;;;2.03;;
3653;SDS011;70277;54.302;10.064;2023-06-10T06:28:45;9.20;;;1.98;;
3653;SDS011;70277;54.302;10.064;2023-06-10T06:31:12;8.13;;;1.92;;
3653;SDS011;70277;54.302;10.064;2023-06-10T06:33:38;11.13;;;1.70;;
3653;SDS011;70277;54.302;10.064;2023-06-10T06:36:05;6.85;;;1.90;;
3653;SDS011;70277;54.302;10.064;2023-06-10T06:38:31;10.25;;;2.05;;
3653;SDS011;70277;54.302;10.064;2023-06-10T06:40:58;9.70;;;1.75;;
3653;SDS011;70277;54.302;10.064;2023-06-10T06:43:29;4.43;;;1.73;;
3653;SDS011;70277;54.302;10.064;2023-06-10T06:45:56;9.10;;;1.77;;
3653;SDS011;70277;54.302;10.064;2023-06-10T06:48:24;12.85;;;2.17;;
3653;SDS011;70277;54.302;10.064;2023-06-10T06:50:50;11.15;;;2.28;;
3653;SDS011;70277;54.302;10.064;2023-06-10T06:53:17;6.47;;;2.08;;
3653;SDS011;70277;54.302;10.064;2023-06-10T06:55:43;11.48;;;2.15;;
3653;SDS011;70277;54.302;10.064;2023-06-10T06:58:10;13.20;;;2.28;;
3653;SDS011;70277;54.302;10.064;2023-06-10T07:00:36;10.93;;;2.58;;
3653;SDS011;70277;54.302;10.064;2023-06-10T07:03:03;7.70;;;1.80;;
3653;SDS011;70277;54.302;10.064;2023-06-10T07:05:30;12.52;;;2.30;;
3653;SDS011;70277;54.302;10.064;2023-06-10T07:07:57;12.43;;;2.25;;
3653;SDS011;70277;54.302;10.064;2023-06-10T07:10:24;8.25;;;2.05;;
3653;SDS011;70277;54.302;10.064;2023-06-10T07:12:51;12.32;;;2.55;;
3653;SDS011;70277;54.302;10.064;2023-06-10T07:15:18;8.63;;;2.10;;
3653;SDS011;70277;54.302;10.064;2023-06-10T07:17:45;6.78;;;2.38;;
3653;SDS011;70277;54.302;10.064;2023-06-10T07:20:11;9.02;;;2.15;;
3653;SDS011;70277;54.302;10.064;2023-06-10T07:22:39;8.75;;;2.10;;
3653;SDS011;70277;54.302;10.064;2023-06-10T07:25:06;7.10;;;1.83;;
3653;SDS011;70277;54.302;10.064;2023-06-10T07:27:33;10.15;;;2.00;;
3653;SDS011;70277;54.302;10.064;2023-06-10T07:29:59;7.55;;;2.05;;
3653;SDS011;70277;54.302;10.064;2023-06-10T07:32:27;8.68;;;2.13;;
3653;SDS011;70277;54.302;10.064;2023-06-10T07:34:53;8.18;;;2.13;;
3653;SDS011;70277;54.302;10.064;2023-06-10T07:37:20;7.72;;;2.45;;
3653;SDS011;70277;54.302;10.064;2023-06-10T07:39:47;6.13;;;2.13;;
3653;SDS011;70277;54.302;10.064;2023-06-10T07:42:13;11.30;;;2.33;;
3653;SDS011;70277;54.302;10.064;2023-06-10T07:44:40;12.30;;;2.10;;
3653;SDS011;70277;54.302;10.064;2023-06-10T07:47:06;6.90;;;2.13;;
3653;SDS011;70277;54.302;10.064;2023-06-10T07:49:33;8.40;;;1.95;;
3653;SDS011;70277;54.302;10.064;2023-06-10T07:51:59;19.00;;;2.70;;
3653;SDS011;70277;54.302;10.064;2023-06-10T07:54:26;10.23;;;2.25;;
3653;SDS011;70277;54.302;10.064;2023-06-10T07:56:55;6.07;;;2.22;;
3653;SDS011;70277;54.302;10.064;2023-06-10T07:59:21;13.15;;;2.42;;
3653;SDS011;70277;54.302;10.064;2023-06-10T08:01:48;11.90;;;1.90;;
3653;SDS011;70277;54.302;10.064;2023-06-10T08:04:14;10.27;;;2.67;;
3653;SDS011;70277;54.302;10.064;2023-06-10T08:06:41;10.18;;;2.28;;
3653;SDS011;70277;54.302;10.064;2023-06-10T08:09:07;6.68;;;2.25;;
3653;SDS011;70277;54.302;10.064;2023-06-10T08:11:34;10.43;;;2.25;;
3653;SDS011;70277;54.302;10.064;2023-06-10T08:14:01;10.77;;;2.30;;
3653;SDS011;70277;54.302;10.064;2023-06-10T08:16:27;10.00;;;2.72;;
3653;SDS011;70277;54.302;10.064;2023-06-10T08:18:54;17.00;;;2.45;;
3653;SDS011;70277;54.302;10.064;2023-06-10T08:21:21;6.93;;;2.15;;
3653;SDS011;70277;54.302;10.064;2023-06-10T08:23:47;7.75;;;2.40;;
3653;SDS011;70277;54.302;10.064;2023-06-10T08:26:14;10.95;;;2.15;;
3653;SDS011;70277;54.302;10.064;2023-06-10T08:28:41;9.18;;;2.17;;
3653;SDS011;70277;54.302;10.064;2023-06-10T08:31:08;13.57;;;2.85;;
3653;SDS011;70277;54.302;10.064;2023-06-10T08:33:34;7.97;;;2.15;;
3653;SDS011;70277;54.302;10.064;2023-06-10T08:36:01;9.07;;;2.88;;
3653;SDS011;70277;54.302;10.064;2023-06-10T08:38:27;10.57;;;2.42;;
3653;SDS011;70277;54.302;10.064;2023-06-10T08:40:56;8.82;;;2.90;;
3653;SDS011;70277;54.302;10.064;2023-06-10T08:43:37;12.15;;;2.95;;
3653;SDS011;70277;54.302;10.064;2023-06-10T08:46:08;7.10;;;2.28;;
3653;SDS011;70277;54.302;10.064;2023-06-10T08:48:38;6.45;;;2.22;;
3653;SDS011;70277;54.302;10.064;2023-06-10T08:51:09;12.30;;;2.30;;
3653;SDS011;70277;54.302;10.064;2023-06-10T08:53:36;9.05;;;2.70;;
3653;SDS011;70277;54.302;10.064;2023-06-10T08:56:08;10.15;;;2.72;;
3653;SDS011;70277;54.302;10.064;2023-06-10T08:58:36;16.70;;;2.50;;
3653;SDS011;70277;54.302;10.064;2023-06-10T09:01:08;10.60;;;3.03;;
3653;SDS011;70277;54.302;10.064;2023-06-10T09:03:36;9.73;;;2.20;;
3653;SDS011;70277;54.302;10.064;2023-06-10T09:06:04;12.07;;;2.67;;
3653;SDS011;70277;54.302;10.064;2023-06-10T09:08:33;8.32;;;2.40;;
3653;SDS011;70277;54.302;10.064;2023-06-10T09:11:00;12.15;;;2.45;;
3653;SDS011;70277;54.302;10.064;2023-06-10T09:13:27;18.08;;;2.63;;
3653;SDS011;70277;54.302;10.064;2023-06-10T09:15:54;13.25;;;2.70;;
3653;SDS011;70277;54.302;10.064;2023-06-10T09:18:22;9.70;;;2.55;;
3653;SDS011;70277;54.302;10.064;2023-06-10T09:20:49;8.75;;;2.65;;
3653;SDS011;70277;54.302;10.064;2023-06-10T09:23:16;8.23;;;2.00;;
3653;SDS011;70277;54.302;10.064;2023-06-10T09:25:42;9.70;;;2.55;;
3653;SDS011;70277;54.302;10.064;2023-06-10T09:28:12;10.18;;;2.40;;
3653;SDS011;70277;54.302;10.064;2023-06-10T09:30:40;13.73;;;3.00;;
3653;SDS011;70277;54.302;10.064;2023-06-10T09:33:13;10.85;;;2.70;;
3653;SDS011;70277;54.302;10.064;2023-06-10T09:35:50;10.70;;;2.58;;
3653;SDS011;70277;54.302;10.064;2023-06-10T09:38:20;9.35;;;2.15;;
3653;SDS011;70277;54.302;10.064;2023-06-10T09:40:48;11.10;;;2.67;;
3653;SDS011;70277;54.302;10.064;2023-06-10T09:43:17;7.07;;;2.50;;
3653;SDS011;70277;54.302;10.064;2023-06-10T09:45:43;14.18;;;2.67;;
3653;SDS011;70277;54.302;10.064;2023-06-10T09:48:13;11.38;;;2.45;;
3653;SDS011;70277;54.302;10.064;2023-06-10T09:50:43;6.75;;;2.20;;
3653;SDS011;70277;54.302;10.064;2023-06-10T09:53:11;13.10;;;3.42;;
3653;SDS011;70277;54.302;10.064;2023-06-10T09:55:38;7.88;;;2.50;;
3653;SDS011;70277;54.302;10.064;2023-06-10T09:58:06;11.48;;;2.83;;
3653;SDS011;70277;54.302;10.064;2023-06-10T10:00:33;5.47;;;1.80;;
3653;SDS011;70277;54.302;10.064;2023-06-10T10:03:00;9.27;;;2.45;;
3653;SDS011;70277;54.302;10.064;2023-06-10T10:05:27;9.02;;;2.33;;
3653;SDS011;70277;54.302;10.064;2023-06-10T10:07:54;10.07;;;2.58;;
3653;SDS011;70277;54.302;10.064;2023-06-10T10:10:22;20.80;;;2.60;;
3653;SDS011;70277;54.302;10.064;2023-06-10T10:12:56;9.20;;;2.38;;
3653;SDS011;70277;54.302;10.064;2023-06-10T10:15:23;7.82;;;2.35;;
3653;SDS011;70277;54.302;10.064;2023-06-10T10:18:00;17.17;;;2.83;;
3653;SDS011;70277;54.302;10.064;2023-06-10T10:20:34;9.43;;;2.42;;
3653;SDS011;70277;54.302;10.064;2023-06-10T10:23:08;13.20;;;2.78;;
3653;SDS011;70277;54.302;10.064;2023-06-10T10:25:38;10.50;;;2.20;;
3653;SDS011;70277;54.302;10.064;2023-06-10T10:28:12;11.63;;;2.35;;
3653;SDS011;70277;54.302;10.064;2023-06-10T10:30:49;10.18;;;2.45;;
3653;SDS011;70277;54.302;10.064;2023-06-10T10:33:19;15.48;;;2.95;;
3653;SDS011;70277;54.302;10.064;2023-06-10T10:35:50;12.70;;;2.72;;
3653;SDS011;70277;54.302;10.064;2023-06-10T10:38:17;9.40;;;2.40;;
3653;SDS011;70277;54.302;10.064;2023-06-10T10:40:43;16.20;;;2.88;;
3653;SDS011;70277;54.302;10.064;2023-06-10T10:43:11;9.13;;;2.20;;
3653;SDS011;70277;54.302;10.064;2023-06-10T10:45:39;11.10;;;2.40;;
3653;SDS011;70277;54.302;10.064;2023-06-10T10:48:07;17.25;;;2.50;;
3653;SDS011;70277;54.302;10.064;2023-06-10T10:50:38;7.35;;;2.50;;
3653;SDS011;70277;54.302;10.064;2023-06-10T10:53:05;10.02;;;2.67;;
3653;SDS011;70277;54.302;10.064;2023-06-10T10:55:32;12.77;;;2.63;;
3653;SDS011;70277;54.302;10.064;2023-06-10T10:58:08;8.95;;;2.47;;
3653;SDS011;70277;54.302;10.064;2023-06-10T11:00:45;11.00;;;2.70;;
3653;SDS011;70277;54.302;10.064;2023-06-10T11:03:13;9.43;;;2.47;;
3653;SDS011;70277;54.302;10.064;2023-06-10T11:05:42;7.65;;;2.45;;
3653;SDS011;70277;54.302;10.064;2023-06-10T11:10:55;17.33;;;3.03;;
3653;SDS011;70277;54.302;10.064;2023-06-10T11:13:22;8.32;;;2.50;;
3653;SDS011;70277;54.302;10.064;2023-06-10T11:15:49;8.60;;;2.35;;
3653;SDS011;70277;54.302;10.064;2023-06-10T11:18:26;15.85;;;2.42;;
3653;SDS011;70277;54.302;10.064;2023-06-10T11:28:40;9.63;;;2.50;;
3653;SDS011;70277;54.302;10.064;2023-06-10T11:31:08;5.85;;;2.28;;
3653;SDS011;70277;54.302;10.064;2023-06-10T11:33:46;11.95;;;2.72;;
3653;SDS011;70277;54.302;10.064;2023-06-10T11:36:14;7.47;;;2.45;;
3653;SDS011;70277;54.302;10.064;2023-06-10T11:38:41;7.68;;;2.45;;
3653;SDS011;70277;54.302;10.064;2023-06-10T11:41:08;9.40;;;2.25;;
3653;SDS011;70277;54.302;10.064;2023-06-10T11:43:35;13.82;;;2.80;;
3653;SDS011;70277;54.302;10.064;2023-06-10T11:46:02;7.25;;;2.50;;
3653;SDS011;70277;54.302;10.064;2023-06-10T11:48:28;13.07;;;2.83;;
3653;SDS011;70277;54.302;10.064;2023-06-10T11:50:56;12.65;;;2.58;;
3653;SDS011;70277;54.302;10.064;2023-06-10T11:53:23;8.35;;;2.40;;
3653;SDS011;70277;54.302;10.064;2023-06-10T11:55:50;11.18;;;2.67;;
3653;SDS011;70277;54.302;10.064;2023-06-10T11:58:18;16.75;;;2.65;;
3653;SDS011;70277;54.302;10.064;2023-06-10T12:00:52;10.85;;;2.67;;
3653;SDS011;70277;54.302;10.064;2023-06-10T12:03:22;16.30;;;3.00;;
3653;SDS011;70277;54.302;10.064;2023-06-10T12:05:55;12.40;;;2.90;;
3653;SDS011;70277;54.302;10.064;2023-06-10T12:08:27;9.18;;;2.38;;
3653;SDS011;70277;54.302;10.064;2023-06-10T12:10:54;11.45;;;3.00;;
3653;SDS011;70277;54.302;10.064;2023-06-10T12:13:21;13.40;;;2.60;;
3653;SDS011;70277;54.302;10.064;2023-06-10T12:15:49;8.03;;;2.37;;
3653;SDS011;70277;54.302;10.064;2023-06-10T12:18:17;9.65;;;2.58;;
3653;SDS011;70277;54.302;10.064;2023-06-10T12:20:45;10.65;;;2.58;;
3653;SDS011;70277;54.302;10.064;2023-06-10T12:23:12;12.73;;;2.30;;
3653;SDS011;70277;54.302;10.064;2023-06-10T12:25:39;13.48;;;2.80;;
3653;SDS011;70277;54.302;10.064;2023-06-10T12:28:09;13.20;;;2.60;;
3653;SDS011;70277;54.302;10.064;2023-06-10T12:30:37;11.07;;;2.63;;
3653;SDS011;70277;54.302;10.064;2023-06-10T12:33:03;9.82;;;2.15;;
3653;SDS011;70277;54.302;10.064;2023-06-10T12:35:30;13.10;;;2.67;;
3653;SDS011;70277;54.302;10.064;2023-06-10T12:37:58;9.27;;;2.38;;
3653;SDS011;70277;54.302;10.064;2023-06-10T12:40:27;7.45;;;2.60;;
3653;SDS011;70277;54.302;10.064;2023-06-10T12:42:59;12.60;;;2.55;;
3653;SDS011;70277;54.302;10.064;2023-06-10T12:45:36;10.80;;;2.50;;
3653;SDS011;70277;54.302;10.064;2023-06-10T12:48:10;7.53;;;2.50;;
3653;SDS011;70277;54.302;10.064;2023-06-10T12:50:57;7.40;;;2.60;;
3653;SDS011;70277;54.302;10.064;2023-06-10T12:53:24;13.25;;;2.65;;
3653;SDS011;70277;54.302;10.064;2023-06-10T12:55:54;10.45;;;2.50;;
3653;SDS011;70277;54.302;10.064;2023-06-10T12:58:21;9.40;;;2.40;;
3653;SDS011;70277;54.302;10.064;2023-06-10T13:00:49;5.03;;;2.10;;
3653;SDS011;70277;54.302;10.064;2023-06-10T13:05:45;7.65;;;2.30;;
3653;SDS011;70277;54.302;10.064;2023-06-10T13:08:11;15.05;;;2.85;;
3653;SDS011;70277;54.302;10.064;2023-06-10T13:10:38;10.02;;;2.80;;
3653;SDS011;70277;54.302;10.064;2023-06-10T13:13:05;10.70;;;2.72;;
3653;SDS011;70277;54.302;10.064;2023-06-10T13:15:33;10.70;;;2.58;;
3653;SDS011;70277;54.302;10.064;2023-06-10T13:18:08;9.88;;;2.35;;
3653;SDS011;70277;54.302;10.064;2023-06-10T13:20:35;8.38;;;2.45;;
3653;SDS011;70277;54.302;10.064;2023-06-10T13:23:02;12.10;;;2.78;;
3653;SDS011;70277;54.302;10.064;2023-06-10T13:25:28;10.85;;;2.45;;
3653;SDS011;70277;54.302;10.064;2023-06-10T13:27:55;12.02;;;2.78;;
3653;SDS011;70277;54.302;10.064;2023-06-10T13:30:21;8.88;;;2.38;;
3653;SDS011;70277;54.302;10.064;2023-06-10T13:32:48;9.48;;;2.67;;
3653;SDS011;70277;54.302;10.064;2023-06-10T13:35:14;12.95;;;2.70;;
3653;SDS011;70277;54.302;10.064;2023-06-10T13:37:41;15.65;;;2.72;;
3653;SDS011;70277;54.302;10.064;2023-06-10T13:40:08;13.60;;;3.00;;
3653;SDS011;70277;54.302;10.064;2023-06-10T13:42:36;10.88;;;2.80;;
3653;SDS011;70277;54.302;10.064;2023-06-10T13:45:03;9.57;;;2.88;;
3653;SDS011;70277;54.302;10.064;2023-06-10T13:47:31;8.65;;;2.78;;
3653;SDS011;70277;54.302;10.064;2023-06-10T13:49:57;13.35;;;2.50;;
3653;SDS011;70277;54.302;10.064;2023-06-10T13:52:24;11.88;;;3.15;;
3653;SDS011;70277;54.302;10.064;2023-06-10T13:54:50;12.75;;;2.70;;
3653;SDS011;70277;54.302;10.064;2023-06-10T13:57:16;17.05;;;3.13;;
3653;SDS011;70277;54.302;10.064;2023-06-10T13:59:43;11.20;;;2.60;;
3653;SDS011;70277;54.302;10.064;2023-06-10T14:02:10;8.52;;;2.28;;
3653;SDS011;70277;54.302;10.064;2023-06-10T14:04:36;8.20;;;2.65;;
3653;SDS011;70277;54.302;10.064;2023-06-10T14:07:03;10.52;;;2.53;;
3653;SDS011;70277;54.302;10.064;2023-06-10T14:09:30;14.32;;;2.80;;
3653;SDS011;70277;54.302;10.064;2023-06-10T14:11:56;10.18;;;2.42;;
3653;SDS011;70277;54.302;10.064;2023-06-10T14:14:23;14.80;;;2.92;;
3653;SDS011;70277;54.302;10.064;2023-06-10T14:16:49;10.85;;;2.03;;
3653;SDS011;70277;54.302;10.064;2023-06-10T14:19:16;10.90;;;2.35;;
3653;SDS011;70277;54.302;10.064;2023-06-10T14:21:42;14.70;;;2.55;;
3653;SDS011;70277;54.302;10.064;2023-06-10T14:24:09;10.55;;;2.47;;
3653;SDS011;70277;54.302;10.064;2023-06-10T14:26:35;9.82;;;2.30;;
3653;SDS011;70277;54.302;10.064;2023-06-10T14:29:02;10.63;;;2.33;;
3653;SDS011;70277;54.302;10.064;2023-06-10T14:31:29;8.15;;;2.47;;
3653;SDS011;70277;54.302;10.064;2023-06-10T14:33:55;6.00;;;2.40;;
3653;SDS011;70277;54.302;10.064;2023-06-10T14:36:22;8.70;;;2.10;;
3653;SDS011;70277;54.302;10.064;2023-06-10T14:38:48;9.77;;;2.92;;
3653;SDS011;70277;54.302;10.064;2023-06-10T14:41:15;9.88;;;2.28;;
3653;SDS011;70277;54.302;10.064;2023-06-10T14:43:41;7.90;;;2.53;;
3653;SDS011;70277;54.302;10.064;2023-06-10T14:46:08;9.90;;;2.38;;
3653;SDS011;70277;54.302;10.064;2023-06-10T14:48:34;11.77;;;2.58;;
3653;SDS011;70277;54.302;10.064;2023-06-10T14:51:02;13.05;;;2.78;;
3653;SDS011;70277;54.302;10.064;2023-06-10T14:53:28;6.43;;;2.10;;
3653;SDS011;70277;54.302;10.064;2023-06-10T14:55:55;10.98;;;2.20;;
3653;SDS011;70277;54.302;10.064;2023-06-10T14:58:21;11.93;;;2.42;;
3653;SDS011;70277;54.302;10.064;2023-06-10T15:00:48;9.45;;;2.50;;